sensor_id;sensor_type;location;lat;lon;timestamp;pressure;altitude;pressure_sealevel;temperature;humidity
34500;BME280;20745;50.882;6.962;2023-03-14T00:00:13;98578.13;;;12.58;100.00
34500;BME280;20745;50.882;6.962;2023-03-14T00:02:40;98591.09;;;12.56;100.00
34500;BME280;20745;50.882;6.962;2023-03-14T00:05:08;98587.81;;;12.54;100.00
34500;BME280;20745;50.882;6.962;2023-03-14T00:07:36;98590.53;;;12.54;100.00
34500;BME280;20745;50.882;6.962;2023-03-14T00:10:11;98598.31;;;12.50;100.00
34500;BME280;20745;50.882;6.962;2023-03-14T00:12:39;98615.28;;;12.46;100.00
34500;BME280;20745;50.882;6.962;2023-03-14T00:15:06;98627.44;;;12.43;100.00
34500;BME280;20745;50.882;6.962;2023-03-14T00:17:34;98643.69;;;12.43;100.00
34500;BME280;20745;50.882;6.962;2023-03-14T00:20:03;98646.72;;;12.47;100.00
34500;BME280;20745;50.882;6.962;2023-03-14T00:22:35;98634.00;;;12.47;100.00
34500;BME280;20745;50.882;6.962;2023-03-14T00:25:02;98644.56;;;12.49;100.00
34500;BME280;20745;50.882;6.962;2023-03-14T00:27:29;98637.03;;;12.51;100.00
34500;BME280;20745;50.882;6.962;2023-03-14T00:29:55;98651.13;;;12.53;100.00
34500;BME280;20745;50.882;6.962;2023-03-14T00:32:22;98633.44;;;12.45;100.00
34500;BME280;20745;50.882;6.962;2023-03-14T00:34:48;98632.78;;;12.55;100.00
34500;BME280;20745;50.882;6.962;2023-03-14T00:37:15;98632.88;;;12.60;100.00
34500;BME280;20745;50.882;6.962;2023-03-14T00:39:41;98638.53;;;12.58;100.00
34500;BME280;20745;50.882;6.962;2023-03-14T00:42:08;98641.97;;;12.54;100.00
34500;BME280;20745;50.882;6.962;2023-03-14T00:44:34;98636.16;;;12.62;100.00
34500;BME280;20745;50.882;6.962;2023-03-14T00:47:01;98629.94;;;12.61;100.00
34500;BME280;20745;50.882;6.962;2023-03-14T00:49:28;98626.47;;;12.66;100.00
34500;BME280;20745;50.882;6.962;2023-03-14T00:51:54;98630.84;;;12.67;100.00
34500;BME280;20745;50.882;6.962;2023-03-14T00:54:21;98612.91;;;12.66;100.00
34500;BME280;20745;50.882;6.962;2023-03-14T00:56:47;98625.97;;;12.69;100.00
34500;BME280;20745;50.882;6.962;2023-03-14T00:59:15;98617.84;;;12.69;100.00
34500;BME280;20745;50.882;6.962;2023-03-14T01:01:41;98634.44;;;12.72;100.00
34500;BME280;20745;50.882;6.962;2023-03-14T01:04:08;98621.16;;;12.71;100.00
34500;BME280;20745;50.882;6.962;2023-03-14T01:06:35;98598.06;;;12.52;100.00
34500;BME280;20745;50.882;6.962;2023-03-14T01:09:01;98629.25;;;12.71;100.00
34500;BME280;20745;50.882;6.962;2023-03-14T01:11:33;98624.94;;;12.70;100.00
34500;BME280;20745;50.882;6.962;2023-03-14T01:14:02;98636.91;;;12.74;100.00
34500;BME280;20745;50.882;6.962;2023-03-14T01:16:31;98645.59;;;12.76;100.00
34500;BME280;20745;50.882;6.962;2023-03-14T01:18:58;98649.38;;;12.75;100.00
34500;BME280;20745;50.882;6.962;2023-03-14T01:21:30;98655.22;;;12.67;100.00
34500;BME280;20745;50.882;6.962;2023-03-14T01:23:58;98650.19;;;12.59;100.00
34500;BME280;20745;50.882;6.962;2023-03-14T01:26:26;98664.00;;;12.46;100.00
34500;BME280;20745;50.882;6.962;2023-03-14T01:28:54;98644.41;;;12.38;100.00
34500;BME280;20745;50.882;6.962;2023-03-14T01:31:21;98641.75;;;12.27;100.00
34500;BME280;20745;50.882;6.962;2023-03-14T01:33:47;98649.84;;;12.10;100.00
34500;BME280;20745;50.882;6.962;2023-03-14T01:36:14;98650.44;;;12.01;100.00
34500;BME280;20745;50.882;6.962;2023-03-14T01:38:41;98649.53;;;11.95;100.00
34500;BME280;20745;50.882;6.962;2023-03-14T01:41:13;98640.72;;;11.88;100.00
34500;BME280;20745;50.882;6.962;2023-03-14T01:43:40;98627.59;;;11.80;100.00
34500;BME280;20745;50.882;6.962;2023-03-14T01:48:57;98639.63;;;11.61;100.00
34500;BME280;20745;50.882;6.962;2023-03-14T01:54:41;98624.03;;;11.40;100.00
34500;BME280;20745;50.882;6.962;2023-03-14T01:57:11;98616.47;;;11.42;100.00
34500;BME280;20745;50.882;6.962;2023-03-14T01:59:43;98608.38;;;11.42;100.00
34500;BME280;20745;50.882;6.962;2023-03-14T02:02:12;98608.72;;;11.46;100.00
34500;BME280;20745;50.882;6.962;2023-03-14T02:04:39;98607.81;;;11.40;100.00
34500;BME280;20745;50.882;6.962;2023-03-14T02:09:40;98610.84;;;11.32;100.00
34500;BME280;20745;50.882;6.962;2023-03-14T02:12:09;98615.94;;;11.29;100.00
34500;BME280;20745;50.882;6.962;2023-03-14T02:14:37;98615.56;;;11.25;100.00
34500;BME280;20745;50.882;6.962;2023-03-14T02:17:05;98604.75;;;11.25;100.00
34500;BME280;20745;50.882;6.962;2023-03-14T02:22:21;98590.22;;;11.15;100.00
34500;BME280;20745;50.882;6.962;2023-03-14T02:25:24;98605.22;;;11.22;100.00
34500;BME280;20745;50.882;6.962;2023-03-14T02:27:54;98590.34;;;11.08;100.00
34500;BME280;20745;50.882;6.962;2023-03-14T02:30:27;98556.28;;;10.96;100.00
34500;BME280;20745;50.882;6.962;2023-03-14T02:32:58;98600.44;;;11.13;100.00
34500;BME280;20745;50.882;6.962;2023-03-14T02:35:28;98587.16;;;11.11;100.00
34500;BME280;20745;50.882;6.962;2023-03-14T02:38:22;98579.91;;;11.12;100.00
34500;BME280;20745;50.882;6.962;2023-03-14T02:40:50;98566.97;;;11.02;100.00
34500;BME280;20745;50.882;6.962;2023-03-14T02:43:17;98572.38;;;11.02;100.00
34500;BME280;20745;50.882;6.962;2023-03-14T02:45:47;98571.56;;;11.02;100.00
34500;BME280;20745;50.882;6.962;2023-03-14T02:48:25;98569.44;;;10.92;100.00
34500;BME280;20745;50.882;6.962;2023-03-14T02:50:55;98574.13;;;10.85;100.00
34500;BME280;20745;50.882;6.962;2023-03-14T02:53:27;98564.03;;;10.81;100.00
34500;BME280;20745;50.882;6.962;2023-03-14T02:55:55;98552.91;;;10.77;100.00
34500;BME280;20745;50.882;6.962;2023-03-14T02:58:21;98552.91;;;10.77;100.00
34500;BME280;20745;50.882;6.962;2023-03-14T03:00:48;98551.75;;;10.73;100.00
34500;BME280;20745;50.882;6.962;2023-03-14T03:03:15;98549.50;;;10.70;100.00
34500;BME280;20745;50.882;6.962;2023-03-14T03:05:41;98542.56;;;10.74;100.00
34500;BME280;20745;50.882;6.962;2023-03-14T03:08:11;98545.38;;;10.79;100.00
34500;BME280;20745;50.882;6.962;2023-03-14T03:10:38;98545.59;;;10.78;100.00
34500;BME280;20745;50.882;6.962;2023-03-14T03:13:04;98549.50;;;10.82;100.00
34500;BME280;20745;50.882;6.962;2023-03-14T03:15:30;98543.13;;;10.88;100.00
34500;BME280;20745;50.882;6.962;2023-03-14T03:17:57;98540.81;;;10.91;100.00
34500;BME280;20745;50.882;6.962;2023-03-14T03:20:23;98536.78;;;10.94;100.00
34500;BME280;20745;50.882;6.962;2023-03-14T03:22:50;98530.13;;;10.96;100.00
34500;BME280;20745;50.882;6.962;2023-03-14T03:25:17;98536.69;;;11.00;100.00
34500;BME280;20745;50.882;6.962;2023-03-14T03:27:43;98529.97;;;11.03;100.00
34500;BME280;20745;50.882;6.962;2023-03-14T03:30:10;98528.34;;;11.02;100.00
34500;BME280;20745;50.882;6.962;2023-03-14T03:32:37;98526.22;;;11.04;100.00
34500;BME280;20745;50.882;6.962;2023-03-14T03:35:04;98526.09;;;11.10;100.00
34500;BME280;20745;50.882;6.962;2023-03-14T03:37:31;98532.44;;;11.16;100.00
34500;BME280;20745;50.882;6.962;2023-03-14T03:39:58;98530.41;;;11.23;100.00
34500;BME280;20745;50.882;6.962;2023-03-14T03:42:29;98532.88;;;11.24;100.00
34500;BME280;20745;50.882;6.962;2023-03-14T03:44:55;98525.38;;;11.26;100.00
34500;BME280;20745;50.882;6.962;2023-03-14T03:47:22;98525.22;;;11.33;100.00
34500;BME280;20745;50.882;6.962;2023-03-14T03:49:48;98523.59;;;11.32;100.00
34500;BME280;20745;50.882;6.962;2023-03-14T03:52:16;98518.19;;;11.32;100.00
34500;BME280;20745;50.882;6.962;2023-03-14T03:54:42;98523.34;;;11.33;100.00
34500;BME280;20745;50.882;6.962;2023-03-14T03:57:09;98529.53;;;11.34;100.00
34500;BME280;20745;50.882;6.962;2023-03-14T03:59:35;98529.31;;;11.35;100.00
34500;BME280;20745;50.882;6.962;2023-03-14T04:02:02;98491.19;;;11.20;100.00
34500;BME280;20745;50.882;6.962;2023-03-14T04:04:29;98523.53;;;11.43;100.00
34500;BME280;20745;50.882;6.962;2023-03-14T04:06:55;98520.84;;;11.43;100.00
34500;BME280;20745;50.882;6.962;2023-03-14T04:09:22;98514.44;;;11.49;100.00
34500;BME280;20745;50.882;6.962;2023-03-14T04:11:48;98518.22;;;11.48;100.00
34500;BME280;20745;50.882;6.962;2023-03-14T04:14:15;98519.84;;;11.49;100.00
34500;BME280;20745;50.882;6.962;2023-03-14T04:16:42;98521.75;;;11.49;100.00
34500;BME280;20745;50.882;6.962;2023-03-14T04:19:08;98521.53;;;11.50;100.00
34500;BME280;20745;50.882;6.962;2023-03-14T04:21:35;98519.97;;;11.54;100.00
34500;BME280;20745;50.882;6.962;2023-03-14T04:24:01;98515.03;;;11.51;100.00
34500;BME280;20745;50.882;6.962;2023-03-14T04:26:28;98513.97;;;11.52;100.00
34500;BME280;20745;50.882;6.962;2023-03-14T04:28:54;98513.50;;;11.55;100.00
34500;BME280;20745;50.882;6.962;2023-03-14T04:31:21;98494.00;;;11.53;100.00
34500;BME280;20745;50.882;6.962;2023-03-14T04:33:48;98503.63;;;11.49;100.00
34500;BME280;20745;50.882;6.962;2023-03-14T04:36:14;98504.16;;;11.46;100.00
34500;BME280;20745;50.882;6.962;2023-03-14T04:38:41;98499.59;;;11.35;100.00
34500;BME280;20745;50.882;6.962;2023-03-14T04:41:07;98502.75;;;11.32;100.00
34500;BME280;20745;50.882;6.962;2023-03-14T04:43:34;98510.31;;;11.30;100.00
34500;BME280;20745;50.882;6.962;2023-03-14T04:46:00;98508.41;;;11.31;100.00
34500;BME280;20745;50.882;6.962;2023-03-14T04:48:27;98501.38;;;11.30;100.00
34500;BME280;20745;50.882;6.962;2023-03-14T04:50:53;98497.13;;;11.34;100.00
34500;BME280;20745;50.882;6.962;2023-03-14T04:53:20;98493.63;;;11.33;100.00
34500;BME280;20745;50.882;6.962;2023-03-14T04:55:50;98484.09;;;11.31;100.00
34500;BME280;20745;50.882;6.962;2023-03-14T04:58:18;98476.81;;;11.31;100.00
34500;BME280;20745;50.882;6.962;2023-03-14T05:00:45;98476.22;;;11.29;100.00
34500;BME280;20745;50.882;6.962;2023-03-14T05:03:11;98479.19;;;11.28;100.00
34500;BME280;20745;50.882;6.962;2023-03-14T05:05:38;98474.59;;;11.28;100.00
34500;BME280;20745;50.882;6.962;2023-03-14T05:08:05;98461.31;;;11.27;100.00
34500;BME280;20745;50.882;6.962;2023-03-14T05:10:31;98464.25;;;11.25;100.00
34500;BME280;20745;50.882;6.962;2023-03-14T05:12:58;98454.59;;;11.29;100.00
34500;BME280;20745;50.882;6.962;2023-03-14T05:15:24;98457.81;;;11.26;100.00
34500;BME280;20745;50.882;6.962;2023-03-14T05:17:51;98452.91;;;11.23;100.00
34500;BME280;20745;50.882;6.962;2023-03-14T05:20:18;98449.47;;;11.28;100.00
34500;BME280;20745;50.882;6.962;2023-03-14T05:22:44;98430.44;;;11.23;100.00
34500;BME280;20745;50.882;6.962;2023-03-14T05:25:11;98441.38;;;11.28;100.00
34500;BME280;20745;50.882;6.962;2023-03-14T05:27:37;98438.91;;;11.26;100.00
34500;BME280;20745;50.882;6.962;2023-03-14T05:30:05;98443.56;;;11.31;100.00
34500;BME280;20745;50.882;6.962;2023-03-14T05:32:32;98436.28;;;11.31;100.00
34500;BME280;20745;50.882;6.962;2023-03-14T05:34:59;98446.50;;;11.29;100.00
34500;BME280;20745;50.882;6.962;2023-03-14T05:37:26;98437.13;;;11.32;100.00
34500;BME280;20745;50.882;6.962;2023-03-14T05:39:52;98443.56;;;11.31;100.00
34500;BME280;20745;50.882;6.962;2023-03-14T05:42:19;98443.91;;;11.34;100.00
34500;BME280;20745;50.882;6.962;2023-03-14T05:44:46;98435.31;;;11.37;100.00
34500;BME280;20745;50.882;6.962;2023-03-14T05:47:12;98440.72;;;11.37;100.00
34500;BME280;20745;50.882;6.962;2023-03-14T05:49:39;98434.50;;;11.37;100.00
34500;BME280;20745;50.882;6.962;2023-03-14T05:52:05;98442.84;;;11.35;100.00
34500;BME280;20745;50.882;6.962;2023-03-14T05:54:32;98439.09;;;11.36;100.00
34500;BME280;20745;50.882;6.962;2023-03-14T05:56:58;98435.31;;;11.37;100.00
34500;BME280;20745;50.882;6.962;2023-03-14T05:59:24;98436.16;;;11.38;100.00
34500;BME280;20745;50.882;6.962;2023-03-14T06:01:51;98435.81;;;11.34;100.00
34500;BME280;20745;50.882;6.962;2023-03-14T06:04:18;98439.34;;;11.35;100.00
34500;BME280;20745;50.882;6.962;2023-03-14T06:06:44;98436.94;;;11.38;100.00
34500;BME280;20745;50.882;6.962;2023-03-14T06:09:11;98433.09;;;11.34;100.00
34500;BME280;20745;50.882;6.962;2023-03-14T06:11:37;98427.09;;;11.32;100.00
34500;BME280;20745;50.882;6.962;2023-03-14T06:14:04;98421.13;;;11.30;100.00
34500;BME280;20745;50.882;6.962;2023-03-14T06:16:30;98414.06;;;11.29;100.00
34500;BME280;20745;50.882;6.962;2023-03-14T06:18:58;98423.38;;;11.33;100.00
34500;BME280;20745;50.882;6.962;2023-03-14T06:21:25;98420.06;;;11.31;100.00
34500;BME280;20745;50.882;6.962;2023-03-14T06:23:51;98415.81;;;11.35;100.00
34500;BME280;20745;50.882;6.962;2023-03-14T06:26:18;98413.34;;;11.34;100.00
34500;BME280;20745;50.882;6.962;2023-03-14T06:28:44;98415.25;;;11.33;100.00
34500;BME280;20745;50.882;6.962;2023-03-14T06:31:11;98419.09;;;11.37;100.00
34500;BME280;20745;50.882;6.962;2023-03-14T06:33:37;98410.50;;;11.40;100.00
34500;BME280;20745;50.882;6.962;2023-03-14T06:36:04;98415.03;;;11.51;100.00
34500;BME280;20745;50.882;6.962;2023-03-14T06:38:30;98411.38;;;11.57;100.00
34500;BME280;20745;50.882;6.962;2023-03-14T06:41:03;98419.56;;;11.62;100.00
34500;BME280;20745;50.882;6.962;2023-03-14T06:43:29;98422.69;;;11.71;100.00
34500;BME280;20745;50.882;6.962;2023-03-14T06:45:56;98415.91;;;11.68;100.00
34500;BME280;20745;50.882;6.962;2023-03-14T06:48:23;98418.63;;;11.85;100.00
34500;BME280;20745;50.882;6.962;2023-03-14T06:50:49;98417.22;;;11.82;100.00
34500;BME280;20745;50.882;6.962;2023-03-14T06:53:15;98421.41;;;11.90;100.00
34500;BME280;20745;50.882;6.962;2023-03-14T06:55:42;98426.91;;;11.95;100.00
34500;BME280;20745;50.882;6.962;2023-03-14T06:58:09;98411.81;;;11.99;100.00
34500;BME280;20745;50.882;6.962;2023-03-14T07:00:36;98429.13;;;11.98;100.00
34500;BME280;20745;50.882;6.962;2023-03-14T07:03:02;98432.88;;;11.97;100.00
34500;BME280;20745;50.882;6.962;2023-03-14T07:05:29;98429.19;;;12.03;100.00
34500;BME280;20745;50.882;6.962;2023-03-14T07:07:56;98432.25;;;12.06;100.00
34500;BME280;20745;50.882;6.962;2023-03-14T07:10:22;98426.34;;;12.09;100.00
34500;BME280;20745;50.882;6.962;2023-03-14T07:12:49;98424.78;;;12.13;100.00
34500;BME280;20745;50.882;6.962;2023-03-14T07:15:15;98424.44;;;12.26;100.00
34500;BME280;20745;50.882;6.962;2023-03-14T07:17:44;98434.09;;;12.39;100.00
34500;BME280;20745;50.882;6.962;2023-03-14T07:20:11;98431.28;;;12.51;100.00
34500;BME280;20745;50.882;6.962;2023-03-14T07:22:37;98438.91;;;12.54;100.00
34500;BME280;20745;50.882;6.962;2023-03-14T07:25:04;98442.41;;;12.54;100.00
34500;BME280;20745;50.882;6.962;2023-03-14T07:27:31;98436.84;;;12.61;100.00
34500;BME280;20745;50.882;6.962;2023-03-14T07:29:58;98452.09;;;12.67;100.00
34500;BME280;20745;50.882;6.962;2023-03-14T07:32:24;98452.16;;;12.72;100.00
34500;BME280;20745;50.882;6.962;2023-03-14T07:34:51;98456.56;;;12.78;100.00
34500;BME280;20745;50.882;6.962;2023-03-14T07:37:17;98457.16;;;12.80;100.00
34500;BME280;20745;50.882;6.962;2023-03-14T07:39:44;98463.38;;;12.80;100.00
34500;BME280;20745;50.882;6.962;2023-03-14T07:42:10;98467.50;;;12.83;100.00
34500;BME280;20745;50.882;6.962;2023-03-14T07:44:37;98461.03;;;12.89;100.00
34500;BME280;20745;50.882;6.962;2023-03-14T07:47:03;98469.00;;;12.95;100.00
34500;BME280;20745;50.882;6.962;2023-03-14T07:49:30;98466.38;;;13.00;100.00
34500;BME280;20745;50.882;6.962;2023-03-14T07:51:56;98466.06;;;12.97;100.00
34500;BME280;20745;50.882;6.962;2023-03-14T07:54:24;98464.97;;;12.98;100.00
34500;BME280;20745;50.882;6.962;2023-03-14T07:56:51;98466.84;;;12.97;100.00
34500;BME280;20745;50.882;6.962;2023-03-14T07:59:18;98469.81;;;12.96;100.00
34500;BME280;20745;50.882;6.962;2023-03-14T08:01:45;98476.72;;;13.03;100.00
34500;BME280;20745;50.882;6.962;2023-03-14T08:04:11;98472.69;;;13.06;100.00
34500;BME280;20745;50.882;6.962;2023-03-14T08:06:38;98455.13;;;12.92;100.00
34500;BME280;20745;50.882;6.962;2023-03-14T08:09:04;98489.59;;;13.13;100.00
34500;BME280;20745;50.882;6.962;2023-03-14T08:11:31;98482.50;;;13.12;100.00
34500;BME280;20745;50.882;6.962;2023-03-14T08:13:57;98487.13;;;13.11;100.00
34500;BME280;20745;50.882;6.962;2023-03-14T08:16:24;98482.25;;;13.13;100.00
34500;BME280;20745;50.882;6.962;2023-03-14T08:18:51;98477.44;;;13.15;100.00
34500;BME280;20745;50.882;6.962;2023-03-14T08:21:17;98482.34;;;13.18;100.00
34500;BME280;20745;50.882;6.962;2023-03-14T08:23:44;98483.91;;;13.14;100.00
34500;BME280;20745;50.882;6.962;2023-03-14T08:26:12;98484.94;;;13.30;100.00
34500;BME280;20745;50.882;6.962;2023-03-14T08:28:39;98483.59;;;13.32;100.00
34500;BME280;20745;50.882;6.962;2023-03-14T08:31:06;98485.66;;;13.47;100.00
34500;BME280;20745;50.882;6.962;2023-03-14T08:33:32;98485.78;;;13.57;100.00
34500;BME280;20745;50.882;6.962;2023-03-14T08:36:00;98486.16;;;13.44;100.00
34500;BME280;20745;50.882;6.962;2023-03-14T08:38:26;98492.94;;;13.41;100.00
34500;BME280;20745;50.882;6.962;2023-03-14T08:41:00;98498.22;;;13.31;100.00
34500;BME280;20745;50.882;6.962;2023-03-14T08:43:28;98496.28;;;13.27;100.00
34500;BME280;20745;50.882;6.962;2023-03-14T08:45:59;98499.47;;;13.24;100.00
34500;BME280;20745;50.882;6.962;2023-03-14T08:48:26;98502.13;;;13.19;100.00
34500;BME280;20745;50.882;6.962;2023-03-14T08:50:52;98502.88;;;13.14;100.00
34500;BME280;20745;50.882;6.962;2023-03-14T08:53:19;98502.88;;;13.14;100.00
34500;BME280;20745;50.882;6.962;2023-03-14T08:55:47;98501.50;;;13.12;100.00
34500;BME280;20745;50.882;6.962;2023-03-14T08:58:13;98502.63;;;13.16;100.00
34500;BME280;20745;50.882;6.962;2023-03-14T09:00:40;98515.16;;;13.22;100.00
34500;BME280;20745;50.882;6.962;2023-03-14T09:03:06;98515.88;;;13.12;100.00
34500;BME280;20745;50.882;6.962;2023-03-14T09:05:34;98510.63;;;13.06;100.00
34500;BME280;20745;50.882;6.962;2023-03-14T09:08:01;98521.41;;;13.01;100.00
34500;BME280;20745;50.882;6.962;2023-03-14T09:10:27;98521.81;;;12.93;100.00
34500;BME280;20745;50.882;6.962;2023-03-14T09:12:54;98527.28;;;12.98;100.00
34500;BME280;20745;50.882;6.962;2023-03-14T09:15:20;98532.13;;;12.96;100.00
34500;BME280;20745;50.882;6.962;2023-03-14T09:17:47;98535.41;;;12.98;100.00
34500;BME280;20745;50.882;6.962;2023-03-14T09:20:13;98534.13;;;13.00;100.00
34500;BME280;20745;50.882;6.962;2023-03-14T09:22:40;98542.97;;;12.96;100.00
34500;BME280;20745;50.882;6.962;2023-03-14T09:25:07;98552.75;;;12.97;100.00
34500;BME280;20745;50.882;6.962;2023-03-14T09:27:34;98543.41;;;12.88;100.00
34500;BME280;20745;50.882;6.962;2023-03-14T09:30:00;98561.97;;;12.79;100.00
34500;BME280;20745;50.882;6.962;2023-03-14T09:32:27;98561.97;;;12.79;100.00
34500;BME280;20745;50.882;6.962;2023-03-14T09:34:53;98573.97;;;12.67;100.00
34500;BME280;20745;50.882;6.962;2023-03-14T09:37:20;98579.69;;;12.54;100.00
34500;BME280;20745;50.882;6.962;2023-03-14T09:39:47;98602.09;;;12.49;100.00
34500;BME280;20745;50.882;6.962;2023-03-14T09:42:17;98628.47;;;12.25;100.00
34500;BME280;20745;50.882;6.962;2023-03-14T09:45:03;98662.91;;;11.39;100.00
34500;BME280;20745;50.882;6.962;2023-03-14T09:47:34;98681.13;;;10.86;100.00
34500;BME280;20745;50.882;6.962;2023-03-14T09:50:03;98694.47;;;10.81;100.00
34500;BME280;20745;50.882;6.962;2023-03-14T09:52:35;98706.53;;;10.67;100.00
34500;BME280;20745;50.882;6.962;2023-03-14T09:55:20;98714.09;;;10.47;100.00
34500;BME280;20745;50.882;6.962;2023-03-14T09:57:49;98734.78;;;10.53;100.00
34500;BME280;20745;50.882;6.962;2023-03-14T10:00:20;98748.78;;;10.62;100.00
34500;BME280;20745;50.882;6.962;2023-03-14T10:02:53;98757.19;;;10.54;100.00
34500;BME280;20745;50.882;6.962;2023-03-14T10:05:22;98769.25;;;10.51;100.00
34500;BME280;20745;50.882;6.962;2023-03-14T10:07:49;98769.72;;;10.48;100.00
34500;BME280;20745;50.882;6.962;2023-03-14T10:10:21;98785.34;;;10.28;100.00
34500;BME280;20745;50.882;6.962;2023-03-14T10:12:57;98797.47;;;10.37;100.00
34500;BME280;20745;50.882;6.962;2023-03-14T10:15:34;98805.34;;;10.39;100.00
34500;BME280;20745;50.882;6.962;2023-03-14T10:18:03;98817.09;;;10.44;100.00
34500;BME280;20745;50.882;6.962;2023-03-14T10:23:03;98833.00;;;10.34;100.00
34500;BME280;20745;50.882;6.962;2023-03-14T10:25:33;98845.13;;;10.25;100.00
34500;BME280;20745;50.882;6.962;2023-03-14T10:28:00;98856.91;;;10.13;100.00
34500;BME280;20745;50.882;6.962;2023-03-14T10:30:44;98864.84;;;10.08;100.00
34500;BME280;20745;50.882;6.962;2023-03-14T10:35:51;98888.97;;;9.96;100.00
34500;BME280;20745;50.882;6.962;2023-03-14T10:38:18;98907.25;;;9.94;100.00
34500;BME280;20745;50.882;6.962;2023-03-14T10:40:50;98905.31;;;9.83;100.00
34500;BME280;20745;50.882;6.962;2023-03-14T10:43:22;98917.44;;;9.92;100.00
34500;BME280;20745;50.882;6.962;2023-03-14T10:46:11;98926.97;;;9.94;100.00
34500;BME280;20745;50.882;6.962;2023-03-14T10:48:39;98938.28;;;10.10;100.00
34500;BME280;20745;50.882;6.962;2023-03-14T10:51:27;98944.72;;;10.09;100.00
34500;BME280;20745;50.882;6.962;2023-03-14T10:54:00;98948.66;;;10.06;100.00
34500;BME280;20745;50.882;6.962;2023-03-14T10:56:34;98950.84;;;9.91;100.00
34500;BME280;20745;50.882;6.962;2023-03-14T10:59:00;98954.59;;;9.90;100.00
34500;BME280;20745;50.882;6.962;2023-03-14T11:10:01;98987.72;;;9.97;100.00
34500;BME280;20745;50.882;6.962;2023-03-14T11:12:50;98993.13;;;9.97;100.00
34500;BME280;20745;50.882;6.962;2023-03-14T11:15:30;98997.06;;;10.26;100.00
34500;BME280;20745;50.882;6.962;2023-03-14T11:21:01;98998.59;;;10.40;100.00
34500;BME280;20745;50.882;6.962;2023-03-14T11:26:42;99018.00;;;10.48;100.00
34500;BME280;20745;50.882;6.962;2023-03-14T11:32:12;99038.28;;;10.57;100.00
34500;BME280;20745;50.882;6.962;2023-03-14T11:34:46;99039.16;;;10.51;100.00
34500;BME280;20745;50.882;6.962;2023-03-14T11:37:24;99034.97;;;10.55;100.00
34500;BME280;20745;50.882;6.962;2023-03-14T11:40:02;99042.78;;;10.63;100.00
34500;BME280;20745;50.882;6.962;2023-03-14T11:42:32;99057.63;;;10.72;100.00
34500;BME280;20745;50.882;6.962;2023-03-14T11:45:00;99055.69;;;10.79;100.00
34500;BME280;20745;50.882;6.962;2023-03-14T11:47:35;99071.44;;;10.82;100.00
34500;BME280;20745;50.882;6.962;2023-03-14T11:50:16;99088.84;;;10.68;100.00
34500;BME280;20745;50.882;6.962;2023-03-14T11:52:55;99153.88;;;9.47;100.00
34500;BME280;20745;50.882;6.962;2023-03-14T11:55:26;99148.84;;;8.68;100.00
34500;BME280;20745;50.882;6.962;2023-03-14T11:58:45;99142.44;;;8.75;100.00
34500;BME280;20745;50.882;6.962;2023-03-14T12:00:46;99145.75;;;8.64;100.00
34500;BME280;20745;50.882;6.962;2023-03-14T12:03:23;99145.31;;;8.80;100.00
34500;BME280;20745;50.882;6.962;2023-03-14T12:08:49;99154.19;;;9.20;100.00
34500;BME280;20745;50.882;6.962;2023-03-14T12:11:45;99171.16;;;9.27;100.00
34500;BME280;20745;50.882;6.962;2023-03-14T12:14:23;99172.16;;;9.39;100.00
34500;BME280;20745;50.882;6.962;2023-03-14T12:19:47;99195.56;;;9.51;100.00
34500;BME280;20745;50.882;6.962;2023-03-14T12:22:19;99212.72;;;9.63;100.00
34500;BME280;20745;50.882;6.962;2023-03-14T12:24:51;99223.44;;;9.76;100.00
34500;BME280;20745;50.882;6.962;2023-03-14T12:30:33;99240.06;;;9.73;100.00
34500;BME280;20745;50.882;6.962;2023-03-14T12:35:57;99258.94;;;9.60;100.00
34500;BME280;20745;50.882;6.962;2023-03-14T12:41:39;99293.19;;;9.27;100.00
34500;BME280;20745;50.882;6.962;2023-03-14T12:49:49;99324.06;;;9.38;100.00
34500;BME280;20745;50.882;6.962;2023-03-14T12:52:20;99318.06;;;9.42;100.00
34500;BME280;20745;50.882;6.962;2023-03-14T12:59:58;99340.25;;;9.31;100.00
34500;BME280;20745;50.882;6.962;2023-03-14T13:02:37;99337.53;;;9.25;100.00
34500;BME280;20745;50.882;6.962;2023-03-14T13:05:18;99369.03;;;9.18;100.00
34500;BME280;20745;50.882;6.962;2023-03-14T13:10:18;99378.53;;;9.01;100.00
34500;BME280;20745;50.882;6.962;2023-03-14T13:12:51;99368.34;;;8.77;100.00
34500;BME280;20745;50.882;6.962;2023-03-14T13:15:24;99388.03;;;8.84;100.00
34500;BME280;20745;50.882;6.962;2023-03-14T13:17:55;99397.16;;;8.96;100.00
34500;BME280;20745;50.882;6.962;2023-03-14T13:20:34;99401.69;;;8.89;100.00
34500;BME280;20745;50.882;6.962;2023-03-14T13:23:02;99412.91;;;8.99;100.00
34500;BME280;20745;50.882;6.962;2023-03-14T13:25:32;99424.56;;;9.12;100.00
34500;BME280;20745;50.882;6.962;2023-03-14T13:28:00;99435.31;;;9.12;100.00
34500;BME280;20745;50.882;6.962;2023-03-14T13:30:35;99434.97;;;9.41;100.00
34500;BME280;20745;50.882;6.962;2023-03-14T13:33:04;99431.25;;;9.62;100.00
34500;BME280;20745;50.882;6.962;2023-03-14T13:35:40;99437.88;;;9.79;100.00
34500;BME280;20745;50.882;6.962;2023-03-14T13:38:24;99442.88;;;9.88;100.00
34500;BME280;20745;50.882;6.962;2023-03-14T13:40:54;99455.75;;;9.80;100.00
34500;BME280;20745;50.882;6.962;2023-03-14T13:43:32;99458.22;;;9.75;100.00
34500;BME280;20745;50.882;6.962;2023-03-14T13:46:16;99455.50;;;9.55;100.00
34500;BME280;20745;50.882;6.962;2023-03-14T13:48:58;99476.03;;;9.50;100.00
34500;BME280;20745;50.882;6.962;2023-03-14T13:51:26;99491.28;;;9.23;100.00
34500;BME280;20745;50.882;6.962;2023-03-14T13:53:58;99497.88;;;9.08;100.00
34500;BME280;20745;50.882;6.962;2023-03-14T13:56:31;99507.66;;;8.75;100.00
34500;BME280;20745;50.882;6.962;2023-03-14T13:58:58;99506.56;;;8.63;100.00
34500;BME280;20745;50.882;6.962;2023-03-14T14:01:29;99516.06;;;8.59;100.00
34500;BME280;20745;50.882;6.962;2023-03-14T14:04:01;99524.56;;;8.62;100.00